Onde está Aqueduto - Caixa de Água en Portugal?

 

Aqueduto - Caixa de Água está situado na região Evora em Portugal!

Buscar o nome de uma cidade:

Aquenta, Aqueduct, Aqueduct Tunnel, Aqueduc Saint-Clément, Aqueduc Saint-Clément

Aqui você vai encontrar a localização de Aqueduto - Caixa de Água em um mapa.
Para ver como ele atualmente parece, abaixo estão algumas fotos da região, com webcams online.
Você também pode encontrar a distância para as principais cidades da região e de cidades do resto do Portugal.

Todos os lugares do mundo chamado .


Onde está Aqueduto - Caixa de Água no mapa?




Webcams perto Aqueduto - Caixa de Água

Ponte de Sôr › North-East.


Ponte de Sôr › North-East - Dia
Actual
Ponte de Sôr › North-East - Actual

Vasco Carão › South: Garrocheira, Benavente − Airport.


Vasco Carão › South: Garrocheira, Benavente − Airport - Dia
Actual
Vasco Carão › South: Garrocheira, Benavente − Airport - Actual

Benavente › North-East: AIrport, METAR: BENAV 180005Z 36004KT 17/14 Q1015.


Benavente › North-East: AIrport, METAR: BENAV 180005Z 36004KT 17/14 Q1015 - Dia
Actual
Benavente › North-East: AIrport, METAR: BENAV 180005Z 36004KT 17/14 Q1015 - Actual

Webcams provided by webcams.travel


Distâncias

Onde está Aqueduto - Caixa de Água em relação a outros lugares?

Top 10 cidades em Evora e distância de Aqueduto - Caixa de Água.

Cidade#Populaçãokmmilhas
Évora14585121
Montemor-o-Novo2128542717
Vendas Novas3112484830
Estremoz493494226
Reguengos de Monsaraz572173723
Redondo658453220
Vila Viçosa754844830
Borba845864729
Adaval9-2616
Agua d' Alte10-3421

Top 10 cidades em Portugal e distância de Aqueduto - Caixa de Água.

Cidade # Populaçãokmmilhas
Lisbon151779810867
Porto2249630293182
Amadora317885611773
Braga4121393335208
Setúbal51171098754
Coimbra6106580187116
Queluz710339811974
Funchal8980411046650
Vila Nova de Gaia970810291181
Loures106623011370



Info

Estatística e Geografia

Portugal é composta de 15299 cidades em 20 regiões.

A região de Evora tem 425 cidades.

Onde está Aqueduto - Caixa de Água en Portugal?